CLASIFICACION GENERAL MASCULINA - 13ª VUELTA DE LOS BOSQUES - 26/06/2022 - GARDEY (Tandil)

 

GENERALPOS.CATEGORIACORREDOR 1 / CORREDOR 2PLACA NºPROCEDENCIAREPRESENTA A:TIEMPODIF.ANTE.DIF.1ºPROMEDIO
11Caballeros BMartinez Claudio / Tolosa Sebastian321Necochea / SaladilloCascos Naranja1:39:55

36,03
22Caballeros BPrato Mauricio / Roldan Jorge357Alberti /C. CasaresRaleigh Team1:40:030:00:080:00:0835,982
31Caballeros AAiello Maximiliano / Fritz Eduardo331Tandil / CalamuchitaRaleigh Team1:42:200:02:170:02:1735,1792
42Caballeros ACedeira Matias / Nuñez Daniel202Ing. Maschwitz/LujanTeam Nitro Bikes1:43:030:00:430:00:4334,9345
53Caballeros BChiacchio Ruben / Chiacchio Martin345TandilRubal rectificacione1:44:040:01:010:01:0134,5932
64Caballeros BGundel Juan / Wagner Ariel368OlavarriaRaleigh Team1:44:180:00:140:00:1434,5158
73Caballeros ASauco Fernando / Sallago Nicolas283Bragado/L. ToninasRaleigh Team1:45:220:01:040:01:0434,1664
85Caballeros BTrotta Gonzalo / Caraccioli Luciano401La Plata / MadariagaNitro-Pivot-Magenta1:46:080:00:460:00:4633,9196
96Caballeros BCuevas Ezequiel / Odriozola Matias277Tandil / MDPTrek/Cuevas CC/Odrio1:46:240:00:160:00:1633,8346
101Caballeros CRuiz Angel / Bonomi Rafael259Rojas / MadariagaRaleigh Team1:47:140:00:500:00:5033,5717
117Caballeros BCastillo Ezequiel / Olguin Ezequiel209G. Belgrano/ A. KornRower 21:47:240:00:100:00:1033,5196
124Caballeros AAlcala Luciano / Martinez Agustin3109 de julioSATSAID1:47:270:00:030:00:0333,504
135Caballeros AGiuliano Cristian / Trabella Dario242Balcarce / TandilP.F./Pompi/Amigorena1:47:380:00:110:00:1133,4469
148Caballeros BOliva Dario / Rey Pablo293Mercedes/MaschwitzKTM1:48:130:00:350:00:3533,2666
156Caballeros AMangiaterra Octavio / Mangiaterra Nelson307RojasRaleigh Team1:48:240:00:110:00:1133,2103
162Caballeros CD'onofrio Hernan / Colella Raul415BalcarceHTM Bikes1:48:350:00:110:00:1133,1543
179Caballeros BCorrea Mauro / Llanos Gaston413NecocheaLos Rivales1:48:370:00:020:00:0233,1441
183Caballeros CCassani Diego / Minghinelli Matias359La PlataSicardi Dakar Team1:48:430:00:060:00:0633,1136
1910Caballeros BCosta Matias / Aiuto Nicolas270ChivilcoySivori Arce Ent.1:48:540:00:110:00:1133,0579
2011Caballeros BWenzel Diego / Dietrich Fernando393La Plata / City BellSicardi Dakar Team1:48:590:00:050:00:0533,0326
214Caballeros CSosa Jorge / Leguizamon Eduardo267Loberia/R. PerezOleouno1:49:270:00:280:00:2832,8917
227Caballeros APollari Martin / Meneghello Uriel302Fco. Alvarez/ MorenoCycles Imperio1:49:330:00:060:00:0632,8617
235Caballeros CErdocia Matias / Pardo Roberto360G. Chaves / BolivarEl dua mecanico1:50:110:00:380:00:3832,6728
248Caballeros ACansina Francisco / Nieto Agustin286TandilCuevas C.C.1:50:350:00:240:00:2432,5546
256Caballeros CAlmeida Anibal / Rodriguez Juan Carlos379Tandil
1:50:460:00:110:00:1132,5008
2612Caballeros BFunaro Pablo / Martinez Esteban377TandilPF Bike1:50:490:00:030:00:0332,4861
2713Caballeros BMessa Marcelo / Mari Emanuel282Tandil
1:51:370:00:480:00:4832,2532
2814Caballeros BLopardo Franco / De La Barrera Pablo37325 de Mayo/ BolivarTeam Classique1:51:410:00:040:00:0432,234
297Caballeros CMartinelli Alexis / Balbarani Carlos412ArrecifesSivori Arce1:51:450:00:040:00:0432,2148
308Caballeros CLavecchia Leandro / Kelly Pedro411Moron/ItuzaingoNitro Bikes1:51:460:00:010:00:0132,21
3115Caballeros BCalvo German / Alvarez Eugenio269Mercedes/TapalqueSivori Arce Ent.1:51:480:00:020:00:0232,2004
329Caballeros CMartinez Jorge / Belsito Jorge320TandilLos Mortadelas1:52:040:00:160:00:1632,1237
3316Caballeros BGaona Diego / Cepeda Ramiro317TandilIwimo1:52:110:00:070:00:0732,0903
3417Caballeros BNavas Diego / Rafecca Luis394Las FloresRS Training1:52:130:00:020:00:0232,0808
3510Caballeros CCamio Pablo / Ermandraut Gustavo420CarhuePablo1:52:190:00:060:00:0632,0522
3611Caballeros CRossi Jose / Sorice Martin287J Fernandez/NecocheaNi me lo digas1:52:500:00:310:00:3131,9055
3712Caballeros CMendioroz Carlos / Ortiz Juan Carlos315Laprida / San JorgeGarra Xeneixe Io1:53:090:00:190:00:1931,8162
3818Caballeros BGener Pablo / Herrera Nicolas330La PlataRower 61:53:150:00:060:00:0631,7881
399Caballeros ADelgado Marcos / Del Palacio Leonardo365QuilmesTeam Service Bike1:53:250:00:100:00:1031,7414
4010Caballeros ASantin Cristian / Santin Alejo338La PlataLarsh Team1:53:400:00:150:00:1531,6716
4113Caballeros CBravo Ariel / Goncalvez Marcelo432BragadoLos Perfumados1:53:570:00:170:00:1731,5928
4219Caballeros BVaccaro Leandro / De Paola Diego318Ituzaingo/Castelar2 Cuñados1:54:280:00:310:00:3131,4502
4311Caballeros AColman Juan / Di Gregorio Leandro274La PlataToto Training1:54:290:00:010:00:0131,4456
4420Caballeros BCosta Guillermo / Escaris Marcelo190Berazategui/QuilmesTeam Service Bike1:54:330:00:040:00:0431,4273
4512Caballeros ALombardi Martin / Bilbao Nicolas319Tandil/LincolnIxa Team1:54:350:00:020:00:0231,4182
461Caballeros DDavant Julio / Chacon Leonardo132BragadoPinqui y Cerebro1:54:400:00:050:00:0531,3953
4721Caballeros BPerez Matias / Scarpello Martin239Tandil
1:54:420:00:020:00:0231,3862
4814Caballeros CAroza Alejandro / Berti Fernando391Tres ArroyosDC Team1:54:450:00:030:00:0331,3725
4922Caballeros BPalahi Sebastian / Della Maggiora German329TandilDemag1:54:480:00:030:00:0331,3589
5023Caballeros BLencina Nicolas / Sanchez Julian434La PlataTioSobrinoMasterBike1:54:480:00:000:00:0031,3589
5115Caballeros CHerrera Marcos / Frau Pablo264La PlataDuro al Pedal1:55:150:00:270:00:2731,2364
5224Caballeros BTugores Jonathan / Freire Sebastian333BolivarTugores Bike Team1:55:190:00:040:00:0431,2184
5313Caballeros ACeliberti Martin / Diaz Juan Manuel299RauchRuederos Competicion1:55:210:00:020:00:0231,2094
5416Caballeros CPalomo Fabian / Calcagno Cesar416Mar del PlataTruetemper1:55:330:00:120:00:1231,1553
5517Caballeros CDirisio Luis / Balbarani Raul311Chivilcoy/ArrecifesSivori Arce1:55:420:00:090:00:0931,115
5625Caballeros BIppolito Nicolas / Marchioni Juan417MiramarMiramar Team1:55:480:00:060:00:0631,0881
5718Caballeros CMenconi Miguel / Aristu Flavio424Pila / CastelliSivori Arce1:55:480:00:000:00:0031,0881
5826Caballeros BCastro Ezequiel / Mignacco Leandro229Tigre / AlbertiRaleigh Team1:55:540:00:060:00:0631,0613
592Caballeros DMichelli Gustavo / Grassi Cesar144Tandil
1:56:350:00:410:00:4130,8792
6019Caballeros CRua Diego / Echegoyen Maximiliano183NecocheaNecoMTB1:56:380:00:030:00:0330,866
613Caballeros DCorrea Francisco / Domaica Felix174NecocheaSivori Arce1:56:380:00:000:00:0030,866
6227Caballeros BBaro Diego / Dolimpo Mariano382MDP / Tandil
1:56:420:00:040:00:0430,8483
6320Caballeros CGonzalez Cristian / Rodriguez Pablo431Mar del PlataCGO Sport Training1:56:510:00:090:00:0930,8087
6428Caballeros BSiringo Manuel / Rubiales Geronimo418Batan / MDPOdriozola Team1:56:520:00:010:00:0130,8043
6529Caballeros BD'agostino Andres / Telleria Cristian237S.C. del TuyuAndres1:57:050:00:130:00:1330,7473
6630Caballeros BIñigo Damian / Roura Agustin414Mar del PlataLa Sombra1:57:130:00:080:00:0830,7124
6731Caballeros BUrroz Fabian / Garcia Matias341Tandil / VeraCuevas C. C.1:57:130:00:000:00:0030,7124
6821Caballeros CFernandez Servando / Salvucci Leandro308Gral. BelgranoSivori Arce1:57:180:00:050:00:0530,6905
6914Caballeros AMila Ariel / Formigo Lucio343Atalaya / MagdalenaSivori A./El Cascote1:57:230:00:050:00:0530,6687
7032Caballeros BScioli Santiago / Rodriguez Cesar246Balcarce
1:57:280:00:050:00:0530,647
7115Caballeros ASuarez Agustin / Mastrangelo Roman222ChivilcoySivori-Arce1:57:320:00:040:00:0430,6296
7216Caballeros AChiacchio Santiago / Ferreira Ignacio266TandilCuevas CC/Solis Bike1:57:360:00:040:00:0430,6122
734Caballeros DBanchero Santiago / Baglietto Guillermo140Chivilcoy/BragadoVairo1:57:380:00:020:00:0230,6036
7417Caballeros AIstillarte Agustin / Lavega Ariel263MadariagaQie tire otro!1:57:400:00:020:00:0230,5949
7533Caballeros BGerez Ezequiel / Cespedes Rolando220Moreno / F. AlvarezNativos del Oeste1:57:500:00:100:00:1030,5516
7634Caballeros BZapata Pablo / Rodriguez Emilio426MDP / Santa ClaraJPR1:57:530:00:030:00:0330,5387
7735Caballeros BRodriguez Rolando / Conte Juan294Magdalena/AtalayaA Tope1:57:550:00:020:00:0230,53
7822Caballeros CMoreno Dario / Mugarza Diego3409 de julioMoreno´s Bike1:58:180:00:230:00:2330,4311
7936Caballeros BPorto Pablo / Guazetti Cristian409Necochea / QuequenPC PRO / DC Team1:58:210:00:030:00:0330,4183
8018Caballeros ACalandra Patricio M / Espinosa Walter A206BalcarceHTM Bikes1:58:300:00:090:00:0930,3797
8119Caballeros AFaglioni Raul / Faglioni Rodrigo238Costa ChicaSivori Arce Ent.1:58:400:00:100:00:1030,3371
8223Caballeros CMaldonado Andres / Tartara Jose3759 de julioSerrucho Desafilado1:58:580:00:180:00:1830,2606
8337Caballeros BFernandez Pablo / Batalla Fernando397Mar del Plata
1:59:000:00:020:00:0230,2521
8424Caballeros CElguero Javier / Berardi Marcelo348Mar del PlataJPR1:59:020:00:020:00:0230,2436
855Caballeros DColavita Marcelo / Bibbo Gustavo170BalcarceHTM Bikes1:59:130:00:110:00:1130,1971
866Caballeros DSileo Carlos / Russo Gabriel180Pinamar/V. del MarPinamar Cycling1:59:310:00:180:00:1830,1213
8725Caballeros CPerini Aldo / Danese Maximiliano256Munro / MartinezLos Re Paquetes1:59:350:00:040:00:0430,1045
8838Caballeros BQuintana Dario / Martinez Dario172C. PringlesLos Tocayos1:59:410:00:060:00:0630,0794
8920Caballeros ADospital Jesus / Chambers Ricardo291ChascomusEndurance Training1:59:430:00:020:00:0230,071
9026Caballeros CCaire Alcides / Baez Mauricio396LujanLa 341:59:570:00:140:00:1430,0125
9127Caballeros CGaliana Ignacio / Capurro Marcelo395La PlataToto Training2:00:220:00:250:00:2529,9086
9239Caballeros BD'onofrio Diego / Senger Jorge176Balcarce / MdPHTM Bikes2:00:390:00:170:00:1729,8384
9340Caballeros BSantucho J. Martin / Covelli Gerardo305Fcio. VarelaVampCyclingTraining2:00:430:00:040:00:0429,8219
9441Caballeros BSuarez Lisandro / La Vista Miguel369C.A.B.A.Donadio Team2:01:490:01:060:01:0629,5526
9528Caballeros CArgüello Matias / Barreneche Juan200Benito JuarezMotoneta Team2:01:500:00:010:00:0129,5486
9621Caballeros APirovi Roberto / Bautista Franco197Mar del PlataJPR2:01:520:00:020:00:0229,5405
9742Caballeros BCerda Diego / Bert Marco385BragadoLos Perfumados2:01:530:00:010:00:0129,5364
9843Caballeros BDiaz Mario / Maldonado Jesus350BarcalceA Tomar la Leche2:02:030:00:100:00:1029,4961
9944Caballeros BPaz Sergio / Gatica Jorge430BragadoAbot y Costello2:02:210:00:180:00:1829,4238
10029Caballeros CDicembrile Guillermo / Rueda Alejandro364Tandil/ Luis GuillonPulguitas Tandil2:02:440:00:230:00:2329,3319
10130Caballeros CBranca Walter / Pastorino Hernan380MiramarPala Team2:02:560:00:120:00:1229,2842
10231Caballeros CLopez Carlos / Sivori Carlos408Gral. BelgranoSivori Arce2:02:580:00:020:00:0229,2762
10345Caballeros BGonzalez Ruben D. / Alzogaray Luis433Monte GrandeTeam Rdos. Nene E.A2:03:070:00:090:00:0929,2406
10432Caballeros CVera Luis Alberto / Gentile Daniel427TandilEl Chacha2:03:250:00:180:00:1829,1695
10546Caballeros BSalituri Nicolas / Folguera Segundo337TandilCuevas C.C.2:03:390:00:140:00:1429,1144
10647Caballeros BRucker David / Sobarso Andres425OlavarriaSoru2:04:040:00:250:00:2529,0167
10748Caballeros BPettovelo Marcos / Garcia Jose Luis253TandilPT Team2:04:110:00:070:00:0728,9894
10822Caballeros AHamer Brian / Granel Nicolas271TandilT&C2:04:140:00:030:00:0328,9777
10949Caballeros BCarrasco Patricio / Granata Mauro298TandilCF Training2:04:160:00:020:00:0228,97
11050Caballeros BForgit Pablo / Gates Pablo422Mar de AjoTeam Bordenave2:04:340:00:180:00:1828,9002
11151Caballeros BRoumec Esteban / Robledo Antonio381Tandil / AzulAsperos2:04:400:00:060:00:0628,877
11252Caballeros BCardinali Agustin / Loza Gaston370Mar del PlataPto Norte2:04:420:00:020:00:0228,8693
11353Caballeros BRivero Sebastian / Gutierrez Javier389La PlataPR Team L. P.2:04:430:00:010:00:0128,8654
11433Caballeros CZaragoza Jorge / Ferrara Leonardo216M. Ajo/ S. BernardoTeam Bordenave2:04:550:00:120:00:1228,8192
1157Caballeros DRatti Lucas / Carrizo Pedro124LincolnTahat2:04:580:00:030:00:0328,8077
11634Caballeros CGiacalone Guillermo / Siringo Sebastian367MDP / BatanOdriozola Training2:05:090:00:110:00:1128,7655
11723Caballeros ABasso Juan Ignacio / Cuevas Julian215ChascomusEndurance Training2:05:140:00:050:00:0528,7463
1188Caballeros DParodi Nestor / Martin Daniel155Pringles / TandilIxa Team2:05:250:00:110:00:1128,7043
11954Caballeros BDupuy Leandro / Frigerio Diego429La PlataToto training2:05:290:00:040:00:0428,6891
12055Caballeros BFernandez Nicolas / Etchegaray Eduardo366Cnel. VidalVidal Bike2:05:380:00:090:00:0928,6548
12124Caballeros AMazzilli Matias / Coronel Martin192Mar del PlataPunto Norte Cylcling2:05:460:00:080:00:0828,6244
12225Caballeros ABeron Avaca Lucas / Rodriguez Emiliano J335Gral. BelgranoMTB Gral. Belgrano2:05:470:00:010:00:0128,6206
12326Caballeros AFernandez Agustin / Andronaco Fernando258Sierras BayasTraing Club S. Bayas2:05:500:00:030:00:0328,6093
12427Caballeros AAlvarez Ivan D. / Perez Matias H.218La PlataRPM2:05:500:00:000:00:0028,6093
12556Caballeros BAgüero Javier / Fernandez Jose390Marcos PazMarcos Paz2:05:520:00:020:00:0228,6017
12635Caballeros CAperlo Jorge Luis / Silvera Juan2289 de julioLos Electricos2:06:050:00:130:00:1328,5525
12736Caballeros CRodriguez Jorge / Campo Marcelo
344PigüeLa Campiña
2:06:160:00:110:00:1128,5111
12857Caballeros BPerez Nicolas / Duran Carlos186Santa ClaraCGO Sport Training2:06:290:00:130:00:1328,4622
12937Caballeros CBaldovino Daniel / Bustamante Marcelo304MadariagaPiru Bike2:06:370:00:080:00:0828,4323
1301Caballeros ECristino Walter / Alvarez Sergio80Ensenada/La PlataToto Training2:06:390:00:020:00:0228,4248
1312Caballeros EViera Luis / Othar Jorge56Tandil
2:06:470:00:080:00:0828,3949
13238Caballeros CFernandez Claudio / Bagnato Osvaldo376Mar del PlataJPR2:06:590:00:120:00:1228,3502
1339Caballeros DCornetta Pablo / Sotelo Oscar163BragadoSerru-Chata2:07:030:00:040:00:0428,3353
13439Caballeros CTroncoso Pablo / Blanco Alfredo339BolivarBolivar Team2:07:140:00:110:00:1128,2945
13540Caballeros CCuesta Matias / Zapata Maximiliano371TandilCuevas CC2:07:140:00:000:00:0028,2945
1363Caballeros ECarocielli Luis / Morena Nestor72Beccar/ Gral. AlvearRaleigh Team2:07:160:00:020:00:0228,2871
13710Caballeros DCantera Osvaldo / Allara Javier108Sta RosaLa Pampa X2:07:230:00:070:00:0728,2612
13858Caballeros BGonzalez C. Nicolas / Bazzano Ricardo421Mar del PlataDoble Stent2:07:240:00:010:00:0128,2575
13959Caballeros BLuna Adrian / Buceta Gaston201MagdalenaA rueda de Gaston2:07:240:00:000:00:0028,2575
14041Caballeros CBertholet Mariano / Argüelles Facundo392Quilmes / TandilLos Sin Piernas2:07:280:00:040:00:0428,2427
14128Caballeros AAlvez Lucas / Robles Thomas227CABA / TigreLibertador Bike Team2:07:290:00:010:00:0128,239
14260Caballeros BMendez Diego / Bikic Ezequiel213BerazateguiLos Facha2:07:420:00:130:00:1328,1911
14342Caballeros CSalvador Walter / Silva Jorge327MDP / OtamendiA rueda te llevo2:07:490:00:070:00:0728,1653
14429Caballeros AMarucci Joaquin / Marucci Guillermo255BolivarArea 51 T. Bolivar2:07:520:00:030:00:0328,1543
14530Caballeros AAgeitos Alejandro / Consoni Julian326Mar del PlataLa Odriozoleta2:08:000:00:080:00:0828,125
14611Caballeros DCardano Fabian / Moriset Daniel159Tres ArroyosEl no loco es tonto2:08:000:00:000:00:0028,125
14761Caballeros BVazquez J. Manuel / Abelando Andres402OlavarriaLion Gym2:08:080:00:080:00:0828,0957
1484Caballeros EVila Juan Antonio / Carbia Juan Horacio32BragadoAnimal-Bombero Loco2:08:120:00:040:00:0428,0811
14962Caballeros BAmaya Jose Luis / Gondon Diego405MiramarPala Team "M. D."2:08:230:00:110:00:1128,041
15043Caballeros CCejas Leandro / Iojimo Juan Carlos235MiramarPala Team Miramar2:08:260:00:030:00:0328,0301
15144Caballeros CRodriguez Ariel / Ojeda Fernando428Tandil
2:08:300:00:040:00:0428,0156
15245Caballeros CRasposo Diego / Gonzalez Thil Camilo324TandilCuevas CC2:08:430:00:130:00:1327,9684
15346Caballeros CLosinno Fernando / Arribas Rodrigo356S. A. de GilesSivori Arce2:08:500:00:070:00:0727,9431
15463Caballeros BZaza Matias / Becker Federico309Lanus/Tristan SuarezLos envidiosos2:08:520:00:020:00:0227,9359
15547Caballeros CSanchez Luis / Ruiz Alejandro223BolivarTBT Bolivar2:08:540:00:020:00:0227,9286
15664Caballeros BSteigerwald Carlos / Bonanni Martin226QuilmesMapuche BTT2:08:550:00:010:00:0127,925
15765Caballeros BCarreras Gonzalo / Dorado Mauro301Mar de AjoTeam Bordenave2:09:180:00:230:00:2327,8422
15848Caballeros CGallardo Oscar / Artia Javier404Benito JuarezSivori Arce2:09:310:00:130:00:1327,7957
15931Caballeros ACava Francisco / De Cruz Matias195S. A. de GilesDale al Pedal2:09:320:00:010:00:0127,7921
16049Caballeros CGuzman Claudio / Seiben Mauricio316Mar del PlataJPR Team2:09:350:00:030:00:0327,7814
16166Caballeros BTedesco Silvio Alejandro / Othar Hector230RauchLos Pura Sangre2:09:360:00:010:00:0127,7778
16250Caballeros CBujnicki Oscar / Fortunato Pablo328Marcos PazMosqueteros2:09:460:00:100:00:1027,7421
16351Caballeros CLongarini Mauro / Carballo Ricardo1719 de julioMoreno´s Bike2:10:250:00:390:00:3927,6038
16412Caballeros DBucero German / Bibiloni Carlos1129 de julioLos abuelos2:10:430:00:180:00:1827,5405
16552Caballeros CSacucci Leandro / Lopez Ruben347Mar del PlataPunto Norte Cycling2:10:440:00:010:00:0127,537
16653Caballeros CCamarda Jose / Pascual Mariano240Mar del PlataFresco y Batata2:10:460:00:020:00:0227,53
16713Caballeros DIassi Claudio / Apestegui Diego167La PlataMalestar2:11:030:00:170:00:1727,4704
16854Caballeros CSatragni Guillermo / Petersen Walter208BrandsenCalle San Martin2:11:130:00:100:00:1027,4355
16967Caballeros BBautista Pablo / Mattara Ticiano262BrandsenACCB2:11:170:00:040:00:0427,4216
17055Caballeros CPardal Nahuel / Zabala Carlos407LapridaNewbery Laprida2:11:180:00:010:00:0127,4181
17114Caballeros DMerlo Juan Jose / Ledesma Ricardo128TandilLos Diarieros2:11:230:00:050:00:0527,4007
17268Caballeros BAlzamendi Eduardo / Ocampo Ignacio314Azul / Las FloresAmigos a distancia2:11:280:00:050:00:0527,3834
17315Caballeros DEtchetto Sergio / Giovanini Daniel147City BellMell en la Sierra2:11:460:00:180:00:1827,321
17416Caballeros DSala Mariano / Consoni Claudio8Mar del PlataLos Cube2:11:550:00:090:00:0927,29
17556Caballeros CLescano Jorge / Ginter Lucas288Olavarria42K Bikes2:11:570:00:020:00:0227,2831
17669Caballeros BPalavecino Fabian / D´Ambrosio Carlos386Mar del PlataLas Avenidas2:12:110:00:140:00:1427,2349
17757Caballeros CCahue Fernando / Avendaño Sebastian312Marcos PazMaquina de Guerra2:12:260:00:150:00:1527,1835
1785Caballeros EGarcia Eugenio / Rota Enrique48Martinez / TigreRaleigh Team2:12:470:00:210:00:2127,1118
17970Caballeros BKanemann Gustavo / Benitez Diego233G. RodriguezEmex2:13:020:00:150:00:1527,0609
18071Caballeros BDe Lisio Dario / Pasini Roberto182San Bernardo/M. AjoTeam Bordenave2:13:020:00:000:00:0027,0594
18172Caballeros BMartinez Ignacio / Rimoli Emmanuel198Benito JuarezEl Trebol Club2:13:270:00:250:00:2526,9764
18273Caballeros BAlvarez Juan / Marchessi Franco196BolivarAmigos en 2 ruedas2:13:550:00:280:00:2826,8824
18358Caballeros CLarroude Luciano / Pereyra Luciano292TandilCuevas CC2:13:550:00:000:00:0026,8824
18459Caballeros CCavodevilla Claudio / Verschoor Pedro399Boulogne / AcassusoRe Paquetes2:14:030:00:080:00:0826,8557
18560Caballeros CDiaz German / Cabrera Manuel219TandilDios nos ayude2:14:110:00:080:00:0826,8256
18674Caballeros BAlmara Hernan / Gomez Gaston225BerazateguiTeam Service Bikes2:14:250:00:140:00:1426,7824
18761Caballeros CMeier Carlos / Vercesi Jorge212CariloCharlie y Dinamita2:14:290:00:040:00:0426,7691
18875Caballeros BBatlle S. Joakin / Batlle David374Mar del PlataGA Competicion2:14:300:00:010:00:0126,7658
1896Caballeros EAmigo Julio Cesar / Moreno Jorge76BragadoHay Equipo2:14:380:00:080:00:0826,7393
19062Caballeros CMonje Julio / Burckhardt Sergio250Mar del PlataPunto Norte Cycling2:15:100:00:320:00:3226,6338
19117Caballeros DGatica Eduardo / Cause Sergio92BragadoPoli-Fruti2:15:160:00:060:00:0626,6141
19263Caballeros CMatavos Juan / Viglietti Gustavo387Zarate / BaraderoLaika2:15:220:00:060:00:0626,5944
19376Caballeros BMartinez Emiliano / Via Sebastian257TandilCuevas C. C.2:15:500:00:280:00:2826,5031
19477Caballeros BCisneros Christian / Indelicato Antonio306I. Casanova/Ramos M.MCO2:15:510:00:010:00:0126,4998
19578Caballeros BAcuñas Matias / Teisceira Francisco205TandilAcuña Bachi2:15:510:00:000:00:0026,4998
1967Caballeros EFernandez Juan / Lopez Jose28Balcarce
2:15:550:00:040:00:0426,4868
19764Caballeros CVerdolotti Luis / Dopta Hector152La PlataArana Team2:16:030:00:080:00:0826,4609
19879Caballeros BAltamiranda Roque / Perez Daniel261TandilTandil Bike2:16:470:00:440:00:4426,319
19980Caballeros BDa Luz Henrique / Rezzonico Andres249La PlataPorto Team2:16:590:00:120:00:1226,2806
20065Caballeros CAlvarez Dario / Grela Diego383Resistencia/TandilD y D2:17:270:00:280:00:2826,1913
20181Caballeros BPetersen Pablo / Malisia Ignacio349TandilLos Flequilludos2:17:460:00:190:00:1926,1311
20266Caballeros CCagnone Fernando / Beatrice Marcelo191ChivilcoySivori Arce2:17:490:00:030:00:0326,1217
20382Caballeros BMolinari Nestor / Ramallo Diego265Olavarria/ S. BayasUp Cycling2:18:040:00:150:00:1526,0744
20467Caballeros CBenestante Pablo / Ortiz Juan Pablo211PigüePigüe2:18:220:00:180:00:1826,0178
20583Caballeros BAmadeo Roberto / Arrigoni Ignacio354San BernardoTeam Bordenave2:18:360:00:140:00:1425,974
20632Caballeros AMorada Daniel / Pozebon Lautaro346S. A. de GilesDale al Pedal2:18:420:00:060:00:0625,9553
20733Caballeros AAriaudo Tomas / Monferrat Jose323Bernal / PinamarAriaudo/Monferrat2:18:420:00:000:00:0025,9553
20884Caballeros BOlea Federico / Palacio Francisco410Villa GesellPerritos Malvados2:18:440:00:020:00:0225,9491
20918Caballeros DCasco Marcelo / Dadario Marcelo136AyacuchoEl Negro y El Corni2:18:470:00:030:00:0325,9397
21019Caballeros DCardenas Walter / Torres Alberto184Ayacucho/MiramarCaballeros de camino2:18:470:00:000:00:0025,9397
21185Caballeros BDiaz Cesar / Izaguirre Juan241Tandil / MDPPrimos Team2:18:570:00:100:00:1025,9086
2128Caballeros EIstillarte Jorge / Arce Carlos52Tandil / ChivilcoySivori Arce2:19:170:00:200:00:2025,8466
21334Caballeros AAcerbi Juan Manuel / Diaz Federico234CABALos Profes Bikers2:19:300:00:130:00:1325,8065
21420Caballeros DErretegui Pedro / Perez Rodolfo120MagdalenaLos Descorchadores2:19:400:00:100:00:1025,7757
21586Caballeros BZerda Pablo / Enrique Dario245Berazategui/QuilmesTeam Service Bikes2:19:500:00:100:00:1025,7449
21668Caballeros CConsalvo Roberto / Casavilla Juan179V. Adelina / OlivosRe Paquetes2:20:290:00:390:00:3925,6258
21721Caballeros DVazquez Carlos / Ferreyra Sergio84S. Bernardo/M. AjoTeam Bordenave2:20:430:00:140:00:1425,5833
21887Caballeros BCabrera Daniel / Pimentel Marcelo273Tres ArroyosEl 512:20:580:00:150:00:1525,538
21969Caballeros COdriozola Guillermo/MachinandiarenaPedro423TandilGuille/Pedro2:21:030:00:050:00:0525,5229
22088Caballeros BGrassi Maximiliano / Martini Jonatan297Mar del PlataJPR2:21:230:00:200:00:2025,4627
22170Caballeros CComperatore Oscar / Hilal Ernesto419Mar del PlataAyuno Fase 42:21:510:00:280:00:2825,3789
22289